sensor_id;sensor_type;location;lat;lon;timestamp;P1;durP1;ratioP1;P2;durP2;ratioP2
13343;SDS011;6741;48.964;9.406;2024-03-08T00:01:00;22.77;;;14.33;;
13343;SDS011;6741;48.964;9.406;2024-03-08T00:03:26;22.70;;;15.53;;
13343;SDS011;6741;48.964;9.406;2024-03-08T00:05:54;21.47;;;14.77;;
13343;SDS011;6741;48.964;9.406;2024-03-08T00:08:22;25.53;;;15.10;;
13343;SDS011;6741;48.964;9.406;2024-03-08T00:10:50;24.10;;;15.33;;
13343;SDS011;6741;48.964;9.406;2024-03-08T00:13:17;23.33;;;14.87;;
13343;SDS011;6741;48.964;9.406;2024-03-08T00:15:45;21.90;;;14.50;;
13343;SDS011;6741;48.964;9.406;2024-03-08T00:18:13;21.40;;;14.50;;
13343;SDS011;6741;48.964;9.406;2024-03-08T00:20:39;24.00;;;16.17;;
13343;SDS011;6741;48.964;9.406;2024-03-08T00:23:06;26.50;;;15.90;;
13343;SDS011;6741;48.964;9.406;2024-03-08T00:25:33;24.47;;;15.83;;
13343;SDS011;6741;48.964;9.406;2024-03-08T00:28:00;21.03;;;15.80;;
13343;SDS011;6741;48.964;9.406;2024-03-08T00:30:27;23.53;;;15.80;;
13343;SDS011;6741;48.964;9.406;2024-03-08T00:32:57;27.27;;;16.97;;
13343;SDS011;6741;48.964;9.406;2024-03-08T00:35:24;23.77;;;16.43;;
13343;SDS011;6741;48.964;9.406;2024-03-08T00:37:51;22.33;;;15.77;;
13343;SDS011;6741;48.964;9.406;2024-03-08T00:40:21;23.23;;;15.93;;
13343;SDS011;6741;48.964;9.406;2024-03-08T00:42:48;26.80;;;16.47;;
13343;SDS011;6741;48.964;9.406;2024-03-08T00:45:15;24.53;;;15.87;;
13343;SDS011;6741;48.964;9.406;2024-03-08T00:47:42;23.03;;;15.60;;
13343;SDS011;6741;48.964;9.406;2024-03-08T00:50:11;25.03;;;15.80;;
13343;SDS011;6741;48.964;9.406;2024-03-08T00:52:39;26.93;;;16.90;;
13343;SDS011;6741;48.964;9.406;2024-03-08T00:55:06;26.33;;;16.67;;
13343;SDS011;6741;48.964;9.406;2024-03-08T00:57:35;26.37;;;16.60;;
13343;SDS011;6741;48.964;9.406;2024-03-08T01:00:04;27.00;;;16.67;;
13343;SDS011;6741;48.964;9.406;2024-03-08T01:02:36;29.00;;;16.97;;
13343;SDS011;6741;48.964;9.406;2024-03-08T01:05:03;23.30;;;15.70;;
13343;SDS011;6741;48.964;9.406;2024-03-08T01:07:33;26.97;;;16.63;;
13343;SDS011;6741;48.964;9.406;2024-03-08T01:10:01;26.13;;;16.57;;
13343;SDS011;6741;48.964;9.406;2024-03-08T01:12:28;22.93;;;16.17;;
13343;SDS011;6741;48.964;9.406;2024-03-08T01:14:55;24.77;;;16.20;;
13343;SDS011;6741;48.964;9.406;2024-03-08T01:17:23;27.67;;;17.40;;
13343;SDS011;6741;48.964;9.406;2024-03-08T01:19:50;22.23;;;14.90;;
13343;SDS011;6741;48.964;9.406;2024-03-08T01:22:17;23.67;;;15.90;;
13343;SDS011;6741;48.964;9.406;2024-03-08T01:24:45;25.83;;;16.13;;
13343;SDS011;6741;48.964;9.406;2024-03-08T01:27:12;24.40;;;16.37;;
13343;SDS011;6741;48.964;9.406;2024-03-08T01:29:39;25.13;;;16.17;;
13343;SDS011;6741;48.964;9.406;2024-03-08T01:32:06;23.53;;;15.13;;
13343;SDS011;6741;48.964;9.406;2024-03-08T01:34:33;24.97;;;16.47;;
13343;SDS011;6741;48.964;9.406;2024-03-08T01:37:00;25.63;;;17.43;;
13343;SDS011;6741;48.964;9.406;2024-03-08T01:39:27;20.93;;;15.00;;
13343;SDS011;6741;48.964;9.406;2024-03-08T01:41:55;26.40;;;15.87;;
13343;SDS011;6741;48.964;9.406;2024-03-08T01:44:22;23.80;;;15.00;;
13343;SDS011;6741;48.964;9.406;2024-03-08T01:46:49;28.20;;;16.60;;
13343;SDS011;6741;48.964;9.406;2024-03-08T01:49:17;29.23;;;18.37;;
13343;SDS011;6741;48.964;9.406;2024-03-08T01:51:46;29.90;;;16.87;;
13343;SDS011;6741;48.964;9.406;2024-03-08T01:54:14;25.87;;;16.73;;
13343;SDS011;6741;48.964;9.406;2024-03-08T01:56:43;27.90;;;16.43;;
13343;SDS011;6741;48.964;9.406;2024-03-08T01:59:11;25.40;;;15.80;;
13343;SDS011;6741;48.964;9.406;2024-03-08T02:01:39;27.03;;;16.87;;
13343;SDS011;6741;48.964;9.406;2024-03-08T02:04:07;23.60;;;16.57;;
13343;SDS011;6741;48.964;9.406;2024-03-08T02:06:34;23.73;;;16.03;;
13343;SDS011;6741;48.964;9.406;2024-03-08T02:09:01;25.83;;;17.67;;
13343;SDS011;6741;48.964;9.406;2024-03-08T02:11:31;25.23;;;16.30;;
13343;SDS011;6741;48.964;9.406;2024-03-08T02:13:58;24.77;;;16.23;;
13343;SDS011;6741;48.964;9.406;2024-03-08T02:16:26;26.33;;;16.43;;
13343;SDS011;6741;48.964;9.406;2024-03-08T02:18:53;25.33;;;15.23;;
13343;SDS011;6741;48.964;9.406;2024-03-08T02:21:21;26.80;;;16.13;;
13343;SDS011;6741;48.964;9.406;2024-03-08T02:23:48;26.57;;;16.33;;
13343;SDS011;6741;48.964;9.406;2024-03-08T02:26:17;24.43;;;15.77;;
13343;SDS011;6741;48.964;9.406;2024-03-08T02:28:44;26.07;;;16.57;;
13343;SDS011;6741;48.964;9.406;2024-03-08T02:31:11;24.70;;;15.27;;
13343;SDS011;6741;48.964;9.406;2024-03-08T02:33:38;27.33;;;15.77;;
13343;SDS011;6741;48.964;9.406;2024-03-08T02:36:05;23.57;;;16.57;;
13343;SDS011;6741;48.964;9.406;2024-03-08T02:38:34;25.13;;;15.80;;
13343;SDS011;6741;48.964;9.406;2024-03-08T02:41:01;24.40;;;15.43;;
13343;SDS011;6741;48.964;9.406;2024-03-08T02:43:28;24.93;;;15.50;;
13343;SDS011;6741;48.964;9.406;2024-03-08T02:45:55;25.53;;;15.83;;
13343;SDS011;6741;48.964;9.406;2024-03-08T02:48:22;27.23;;;17.03;;
13343;SDS011;6741;48.964;9.406;2024-03-08T02:50:49;22.57;;;15.30;;
13343;SDS011;6741;48.964;9.406;2024-03-08T02:53:16;23.57;;;16.17;;
13343;SDS011;6741;48.964;9.406;2024-03-08T02:55:46;26.10;;;16.10;;
13343;SDS011;6741;48.964;9.406;2024-03-08T02:58:13;25.83;;;16.10;;
13343;SDS011;6741;48.964;9.406;2024-03-08T03:00:40;22.93;;;15.73;;
13343;SDS011;6741;48.964;9.406;2024-03-08T03:03:08;26.93;;;15.43;;
13343;SDS011;6741;48.964;9.406;2024-03-08T03:05:35;23.47;;;15.90;;
13343;SDS011;6741;48.964;9.406;2024-03-08T03:08:02;22.60;;;14.73;;
13343;SDS011;6741;48.964;9.406;2024-03-08T03:10:33;27.03;;;16.30;;
13343;SDS011;6741;48.964;9.406;2024-03-08T03:13:02;25.67;;;16.13;;
13343;SDS011;6741;48.964;9.406;2024-03-08T03:15:29;24.33;;;15.10;;
13343;SDS011;6741;48.964;9.406;2024-03-08T03:17:56;24.20;;;15.67;;
13343;SDS011;6741;48.964;9.406;2024-03-08T03:20:23;23.13;;;14.83;;
13343;SDS011;6741;48.964;9.406;2024-03-08T03:22:51;24.27;;;15.90;;
13343;SDS011;6741;48.964;9.406;2024-03-08T03:25:19;24.97;;;16.17;;
13343;SDS011;6741;48.964;9.406;2024-03-08T03:27:50;23.53;;;15.10;;
13343;SDS011;6741;48.964;9.406;2024-03-08T03:30:19;23.40;;;16.23;;
13343;SDS011;6741;48.964;9.406;2024-03-08T03:32:47;24.27;;;15.97;;
13343;SDS011;6741;48.964;9.406;2024-03-08T03:35:14;25.63;;;15.73;;
13343;SDS011;6741;48.964;9.406;2024-03-08T03:37:42;24.77;;;17.07;;
13343;SDS011;6741;48.964;9.406;2024-03-08T03:40:11;23.77;;;15.17;;
13343;SDS011;6741;48.964;9.406;2024-03-08T03:42:39;26.43;;;15.77;;
13343;SDS011;6741;48.964;9.406;2024-03-08T03:45:06;25.63;;;15.43;;
13343;SDS011;6741;48.964;9.406;2024-03-08T03:47:35;25.23;;;15.53;;
13343;SDS011;6741;48.964;9.406;2024-03-08T03:50:04;25.10;;;16.47;;
13343;SDS011;6741;48.964;9.406;2024-03-08T03:52:34;24.60;;;15.70;;
13343;SDS011;6741;48.964;9.406;2024-03-08T03:55:01;28.73;;;16.53;;
13343;SDS011;6741;48.964;9.406;2024-03-08T03:57:29;25.00;;;15.40;;
13343;SDS011;6741;48.964;9.406;2024-03-08T03:59:56;24.80;;;15.67;;
13343;SDS011;6741;48.964;9.406;2024-03-08T04:02:23;25.90;;;17.00;;
13343;SDS011;6741;48.964;9.406;2024-03-08T04:04:52;24.27;;;15.80;;
13343;SDS011;6741;48.964;9.406;2024-03-08T04:07:20;27.07;;;16.90;;
13343;SDS011;6741;48.964;9.406;2024-03-08T04:09:47;27.47;;;16.37;;
13343;SDS011;6741;48.964;9.406;2024-03-08T04:12:14;26.07;;;16.23;;
13343;SDS011;6741;48.964;9.406;2024-03-08T04:14:44;26.70;;;16.77;;
13343;SDS011;6741;48.964;9.406;2024-03-08T04:17:11;27.20;;;15.80;;
13343;SDS011;6741;48.964;9.406;2024-03-08T04:19:38;30.60;;;18.33;;
13343;SDS011;6741;48.964;9.406;2024-03-08T04:22:07;26.03;;;17.13;;
13343;SDS011;6741;48.964;9.406;2024-03-08T04:24:33;23.67;;;16.40;;
13343;SDS011;6741;48.964;9.406;2024-03-08T04:27:00;25.93;;;16.60;;
13343;SDS011;6741;48.964;9.406;2024-03-08T04:29:27;29.60;;;17.30;;
13343;SDS011;6741;48.964;9.406;2024-03-08T04:31:54;26.93;;;17.40;;
13343;SDS011;6741;48.964;9.406;2024-03-08T04:34:21;26.67;;;16.73;;
13343;SDS011;6741;48.964;9.406;2024-03-08T04:36:49;27.00;;;16.87;;
13343;SDS011;6741;48.964;9.406;2024-03-08T04:39:17;22.70;;;15.70;;
13343;SDS011;6741;48.964;9.406;2024-03-08T04:41:44;25.37;;;16.17;;
13343;SDS011;6741;48.964;9.406;2024-03-08T04:44:11;25.97;;;16.10;;
13343;SDS011;6741;48.964;9.406;2024-03-08T04:46:38;27.37;;;17.47;;
13343;SDS011;6741;48.964;9.406;2024-03-08T04:49:06;28.63;;;17.87;;
13343;SDS011;6741;48.964;9.406;2024-03-08T04:51:33;25.87;;;17.80;;
13343;SDS011;6741;48.964;9.406;2024-03-08T04:54:00;27.90;;;17.30;;
13343;SDS011;6741;48.964;9.406;2024-03-08T04:56:28;25.27;;;16.93;;
13343;SDS011;6741;48.964;9.406;2024-03-08T04:58:55;24.77;;;16.80;;
13343;SDS011;6741;48.964;9.406;2024-03-08T05:01:22;27.07;;;17.43;;
13343;SDS011;6741;48.964;9.406;2024-03-08T05:03:49;24.57;;;16.70;;
13343;SDS011;6741;48.964;9.406;2024-03-08T05:06:19;26.70;;;17.87;;
13343;SDS011;6741;48.964;9.406;2024-03-08T05:08:45;28.57;;;17.63;;
13343;SDS011;6741;48.964;9.406;2024-03-08T05:11:12;26.23;;;16.83;;
13343;SDS011;6741;48.964;9.406;2024-03-08T05:13:41;27.47;;;18.13;;
13343;SDS011;6741;48.964;9.406;2024-03-08T05:16:08;28.07;;;18.13;;
13343;SDS011;6741;48.964;9.406;2024-03-08T05:18:35;25.43;;;16.50;;
13343;SDS011;6741;48.964;9.406;2024-03-08T05:21:02;25.17;;;17.13;;
13343;SDS011;6741;48.964;9.406;2024-03-08T05:23:29;29.70;;;16.93;;
13343;SDS011;6741;48.964;9.406;2024-03-08T05:25:56;26.10;;;17.30;;
13343;SDS011;6741;48.964;9.406;2024-03-08T05:28:23;27.13;;;17.90;;
13343;SDS011;6741;48.964;9.406;2024-03-08T05:30:51;26.33;;;17.40;;
13343;SDS011;6741;48.964;9.406;2024-03-08T05:33:21;27.47;;;17.33;;
13343;SDS011;6741;48.964;9.406;2024-03-08T05:35:49;28.67;;;18.10;;
13343;SDS011;6741;48.964;9.406;2024-03-08T05:38:17;23.37;;;16.07;;
13343;SDS011;6741;48.964;9.406;2024-03-08T05:40:45;29.43;;;17.20;;
13343;SDS011;6741;48.964;9.406;2024-03-08T05:43:12;27.63;;;18.20;;
13343;SDS011;6741;48.964;9.406;2024-03-08T05:45:42;27.27;;;18.27;;
13343;SDS011;6741;48.964;9.406;2024-03-08T05:48:11;28.17;;;17.47;;
13343;SDS011;6741;48.964;9.406;2024-03-08T05:50:38;29.00;;;17.77;;
13343;SDS011;6741;48.964;9.406;2024-03-08T05:53:05;28.47;;;17.83;;
13343;SDS011;6741;48.964;9.406;2024-03-08T05:55:34;30.40;;;19.03;;
13343;SDS011;6741;48.964;9.406;2024-03-08T05:58:01;28.53;;;18.77;;
13343;SDS011;6741;48.964;9.406;2024-03-08T06:00:29;27.73;;;17.90;;
13343;SDS011;6741;48.964;9.406;2024-03-08T06:02:57;28.27;;;17.87;;
13343;SDS011;6741;48.964;9.406;2024-03-08T06:05:27;29.50;;;18.97;;
13343;SDS011;6741;48.964;9.406;2024-03-08T06:07:55;27.77;;;17.90;;
13343;SDS011;6741;48.964;9.406;2024-03-08T06:10:32;32.90;;;19.93;;
13343;SDS011;6741;48.964;9.406;2024-03-08T06:13:00;31.47;;;18.70;;
13343;SDS011;6741;48.964;9.406;2024-03-08T06:15:27;30.03;;;18.50;;
13343;SDS011;6741;48.964;9.406;2024-03-08T06:17:54;32.57;;;18.27;;
13343;SDS011;6741;48.964;9.406;2024-03-08T06:20:21;30.63;;;19.10;;
13343;SDS011;6741;48.964;9.406;2024-03-08T06:22:52;28.77;;;19.27;;
13343;SDS011;6741;48.964;9.406;2024-03-08T06:25:19;29.83;;;18.43;;
13343;SDS011;6741;48.964;9.406;2024-03-08T06:27:46;33.03;;;20.80;;
13343;SDS011;6741;48.964;9.406;2024-03-08T06:30:13;30.23;;;18.77;;
13343;SDS011;6741;48.964;9.406;2024-03-08T06:32:41;33.23;;;18.63;;
13343;SDS011;6741;48.964;9.406;2024-03-08T06:35:09;27.73;;;19.10;;
13343;SDS011;6741;48.964;9.406;2024-03-08T06:37:36;31.60;;;19.20;;
13343;SDS011;6741;48.964;9.406;2024-03-08T06:40:05;28.77;;;18.33;;
13343;SDS011;6741;48.964;9.406;2024-03-08T06:42:33;30.10;;;17.93;;
13343;SDS011;6741;48.964;9.406;2024-03-08T06:45:00;26.90;;;18.83;;
13343;SDS011;6741;48.964;9.406;2024-03-08T06:47:30;27.50;;;18.07;;
13343;SDS011;6741;48.964;9.406;2024-03-08T06:49:56;30.23;;;18.83;;
13343;SDS011;6741;48.964;9.406;2024-03-08T06:52:23;29.93;;;19.30;;
13343;SDS011;6741;48.964;9.406;2024-03-08T06:54:50;26.07;;;17.33;;
13343;SDS011;6741;48.964;9.406;2024-03-08T06:57:19;26.97;;;17.97;;
13343;SDS011;6741;48.964;9.406;2024-03-08T06:59:47;26.80;;;18.10;;
13343;SDS011;6741;48.964;9.406;2024-03-08T07:02:14;28.97;;;18.70;;
13343;SDS011;6741;48.964;9.406;2024-03-08T07:04:41;25.80;;;17.67;;
13343;SDS011;6741;48.964;9.406;2024-03-08T07:07:07;26.37;;;15.97;;
13343;SDS011;6741;48.964;9.406;2024-03-08T07:09:35;28.00;;;18.17;;
13343;SDS011;6741;48.964;9.406;2024-03-08T07:12:02;29.87;;;18.73;;
13343;SDS011;6741;48.964;9.406;2024-03-08T07:14:30;31.50;;;19.60;;
13343;SDS011;6741;48.964;9.406;2024-03-08T07:16:57;28.87;;;19.23;;
13343;SDS011;6741;48.964;9.406;2024-03-08T07:19:24;31.00;;;19.07;;
13343;SDS011;6741;48.964;9.406;2024-03-08T07:21:51;24.80;;;16.80;;
13343;SDS011;6741;48.964;9.406;2024-03-08T07:24:18;25.80;;;16.57;;
13343;SDS011;6741;48.964;9.406;2024-03-08T07:27:03;28.07;;;16.53;;
13343;SDS011;6741;48.964;9.406;2024-03-08T07:29:31;24.30;;;16.53;;
13343;SDS011;6741;48.964;9.406;2024-03-08T07:31:58;28.07;;;17.63;;
13343;SDS011;6741;48.964;9.406;2024-03-08T07:34:37;23.87;;;16.53;;
13343;SDS011;6741;48.964;9.406;2024-03-08T07:37:05;24.00;;;15.83;;
13343;SDS011;6741;48.964;9.406;2024-03-08T07:39:32;25.27;;;16.60;;
13343;SDS011;6741;48.964;9.406;2024-03-08T07:41:59;23.53;;;16.17;;
13343;SDS011;6741;48.964;9.406;2024-03-08T07:44:26;23.50;;;16.13;;
13343;SDS011;6741;48.964;9.406;2024-03-08T07:46:54;27.37;;;16.17;;
13343;SDS011;6741;48.964;9.406;2024-03-08T07:49:21;24.57;;;15.70;;
13343;SDS011;6741;48.964;9.406;2024-03-08T07:51:48;22.87;;;15.73;;
13343;SDS011;6741;48.964;9.406;2024-03-08T07:54:15;22.37;;;15.27;;
13343;SDS011;6741;48.964;9.406;2024-03-08T07:56:42;23.40;;;16.30;;
13343;SDS011;6741;48.964;9.406;2024-03-08T07:59:09;24.47;;;15.80;;
13343;SDS011;6741;48.964;9.406;2024-03-08T08:01:37;23.60;;;15.70;;
13343;SDS011;6741;48.964;9.406;2024-03-08T08:04:05;23.37;;;16.60;;
13343;SDS011;6741;48.964;9.406;2024-03-08T08:06:35;21.83;;;15.67;;
13343;SDS011;6741;48.964;9.406;2024-03-08T08:09:03;20.67;;;14.87;;
13343;SDS011;6741;48.964;9.406;2024-03-08T08:11:30;24.70;;;16.20;;
13343;SDS011;6741;48.964;9.406;2024-03-08T08:13:57;23.40;;;15.47;;
13343;SDS011;6741;48.964;9.406;2024-03-08T08:16:25;24.10;;;14.90;;
13343;SDS011;6741;48.964;9.406;2024-03-08T08:18:52;22.70;;;16.30;;
13343;SDS011;6741;48.964;9.406;2024-03-08T08:21:21;24.53;;;15.93;;
13343;SDS011;6741;48.964;9.406;2024-03-08T08:23:50;20.80;;;14.30;;
13343;SDS011;6741;48.964;9.406;2024-03-08T08:26:16;24.27;;;15.40;;
13343;SDS011;6741;48.964;9.406;2024-03-08T08:28:43;24.07;;;16.23;;
13343;SDS011;6741;48.964;9.406;2024-03-08T08:31:11;20.87;;;15.03;;
13343;SDS011;6741;48.964;9.406;2024-03-08T08:33:38;23.20;;;15.87;;
13343;SDS011;6741;48.964;9.406;2024-03-08T08:36:05;22.30;;;15.43;;
13343;SDS011;6741;48.964;9.406;2024-03-08T08:38:34;26.17;;;16.53;;
13343;SDS011;6741;48.964;9.406;2024-03-08T08:41:01;25.77;;;16.63;;
13343;SDS011;6741;48.964;9.406;2024-03-08T08:43:28;23.57;;;15.40;;
13343;SDS011;6741;48.964;9.406;2024-03-08T08:45:55;21.87;;;15.83;;
13343;SDS011;6741;48.964;9.406;2024-03-08T08:48:22;24.37;;;16.20;;
13343;SDS011;6741;48.964;9.406;2024-03-08T08:50:50;22.93;;;15.20;;
13343;SDS011;6741;48.964;9.406;2024-03-08T08:53:17;23.37;;;16.00;;
13343;SDS011;6741;48.964;9.406;2024-03-08T08:55:46;22.37;;;14.17;;
13343;SDS011;6741;48.964;9.406;2024-03-08T08:58:12;21.27;;;14.53;;
13343;SDS011;6741;48.964;9.406;2024-03-08T09:00:39;28.67;;;16.60;;
13343;SDS011;6741;48.964;9.406;2024-03-08T09:03:07;23.60;;;14.90;;
13343;SDS011;6741;48.964;9.406;2024-03-08T09:05:34;20.03;;;14.30;;
13343;SDS011;6741;48.964;9.406;2024-03-08T09:08:00;23.60;;;15.70;;
13343;SDS011;6741;48.964;9.406;2024-03-08T09:10:28;22.00;;;14.73;;
13343;SDS011;6741;48.964;9.406;2024-03-08T09:12:56;22.13;;;15.17;;
13343;SDS011;6741;48.964;9.406;2024-03-08T09:15:24;23.10;;;14.83;;
13343;SDS011;6741;48.964;9.406;2024-03-08T09:17:53;21.37;;;14.30;;
13343;SDS011;6741;48.964;9.406;2024-03-08T09:20:20;24.23;;;15.27;;
13343;SDS011;6741;48.964;9.406;2024-03-08T09:22:47;23.00;;;15.53;;
13343;SDS011;6741;48.964;9.406;2024-03-08T09:25:14;20.17;;;14.97;;
13343;SDS011;6741;48.964;9.406;2024-03-08T09:27:41;21.30;;;14.77;;
13343;SDS011;6741;48.964;9.406;2024-03-08T09:30:10;23.07;;;15.20;;
13343;SDS011;6741;48.964;9.406;2024-03-08T09:32:38;24.43;;;15.50;;
13343;SDS011;6741;48.964;9.406;2024-03-08T09:35:05;22.30;;;16.00;;
13343;SDS011;6741;48.964;9.406;2024-03-08T09:37:33;19.17;;;13.67;;
13343;SDS011;6741;48.964;9.406;2024-03-08T09:40:00;23.40;;;15.27;;
13343;SDS011;6741;48.964;9.406;2024-03-08T09:42:29;20.37;;;14.13;;
13343;SDS011;6741;48.964;9.406;2024-03-08T09:44:56;23.47;;;14.87;;
13343;SDS011;6741;48.964;9.406;2024-03-08T09:47:25;22.57;;;16.37;;
13343;SDS011;6741;48.964;9.406;2024-03-08T09:49:58;22.67;;;14.97;;
13343;SDS011;6741;48.964;9.406;2024-03-08T09:52:26;27.60;;;15.87;;
13343;SDS011;6741;48.964;9.406;2024-03-08T09:54:55;22.43;;;15.33;;
13343;SDS011;6741;48.964;9.406;2024-03-08T09:57:23;20.77;;;14.77;;
13343;SDS011;6741;48.964;9.406;2024-03-08T09:59:51;19.70;;;13.83;;
13343;SDS011;6741;48.964;9.406;2024-03-08T10:02:18;22.20;;;14.87;;
13343;SDS011;6741;48.964;9.406;2024-03-08T10:04:47;21.90;;;14.80;;
13343;SDS011;6741;48.964;9.406;2024-03-08T10:07:14;22.30;;;16.07;;
13343;SDS011;6741;48.964;9.406;2024-03-08T10:09:41;20.53;;;14.90;;
13343;SDS011;6741;48.964;9.406;2024-03-08T10:12:15;23.63;;;14.53;;
13343;SDS011;6741;48.964;9.406;2024-03-08T10:14:42;22.00;;;14.97;;
13343;SDS011;6741;48.964;9.406;2024-03-08T10:17:09;21.53;;;15.13;;
13343;SDS011;6741;48.964;9.406;2024-03-08T10:19:36;23.70;;;16.13;;
13343;SDS011;6741;48.964;9.406;2024-03-08T10:22:05;24.13;;;15.40;;
13343;SDS011;6741;48.964;9.406;2024-03-08T10:24:33;18.63;;;14.10;;
13343;SDS011;6741;48.964;9.406;2024-03-08T10:27:00;22.10;;;15.23;;
13343;SDS011;6741;48.964;9.406;2024-03-08T10:29:29;21.63;;;14.93;;
13343;SDS011;6741;48.964;9.406;2024-03-08T10:31:57;21.90;;;14.93;;
13343;SDS011;6741;48.964;9.406;2024-03-08T10:34:24;19.90;;;13.77;;
13343;SDS011;6741;48.964;9.406;2024-03-08T10:36:51;21.47;;;13.90;;
13343;SDS011;6741;48.964;9.406;2024-03-08T10:39:22;20.40;;;14.27;;
13343;SDS011;6741;48.964;9.406;2024-03-08T10:41:52;21.93;;;14.30;;
13343;SDS011;6741;48.964;9.406;2024-03-08T10:44:26;20.53;;;14.83;;
13343;SDS011;6741;48.964;9.406;2024-03-08T10:47:09;20.50;;;13.93;;
13343;SDS011;6741;48.964;9.406;2024-03-08T10:49:45;20.90;;;14.10;;
13343;SDS011;6741;48.964;9.406;2024-03-08T10:52:17;19.77;;;14.10;;
13343;SDS011;6741;48.964;9.406;2024-03-08T10:54:47;20.67;;;15.30;;
13343;SDS011;6741;48.964;9.406;2024-03-08T10:57:16;18.93;;;13.77;;
13343;SDS011;6741;48.964;9.406;2024-03-08T10:59:45;18.27;;;13.80;;
13343;SDS011;6741;48.964;9.406;2024-03-08T11:02:14;19.60;;;14.60;;
13343;SDS011;6741;48.964;9.406;2024-03-08T11:04:45;18.40;;;13.47;;
13343;SDS011;6741;48.964;9.406;2024-03-08T11:07:14;19.03;;;13.93;;
13343;SDS011;6741;48.964;9.406;2024-03-08T11:09:44;21.53;;;14.17;;
13343;SDS011;6741;48.964;9.406;2024-03-08T11:12:24;17.90;;;14.23;;
13343;SDS011;6741;48.964;9.406;2024-03-08T11:14:54;18.23;;;13.57;;
13343;SDS011;6741;48.964;9.406;2024-03-08T11:17:26;20.53;;;14.03;;
13343;SDS011;6741;48.964;9.406;2024-03-08T11:20:08;19.37;;;14.60;;
13343;SDS011;6741;48.964;9.406;2024-03-08T11:22:40;18.93;;;13.63;;
13343;SDS011;6741;48.964;9.406;2024-03-08T11:25:30;19.10;;;14.40;;
13343;SDS011;6741;48.964;9.406;2024-03-08T11:28:14;20.27;;;13.80;;
13343;SDS011;6741;48.964;9.406;2024-03-08T11:30:44;18.77;;;14.57;;
13343;SDS011;6741;48.964;9.406;2024-03-08T11:33:13;18.47;;;14.07;;
13343;SDS011;6741;48.964;9.406;2024-03-08T11:35:41;18.73;;;13.47;;
13343;SDS011;6741;48.964;9.406;2024-03-08T11:38:11;18.50;;;13.53;;
13343;SDS011;6741;48.964;9.406;2024-03-08T11:40:41;19.27;;;13.50;;
13343;SDS011;6741;48.964;9.406;2024-03-08T11:43:08;16.83;;;13.40;;
13343;SDS011;6741;48.964;9.406;2024-03-08T11:45:35;16.93;;;13.00;;
13343;SDS011;6741;48.964;9.406;2024-03-08T11:48:03;16.97;;;13.80;;
13343;SDS011;6741;48.964;9.406;2024-03-08T11:50:30;17.93;;;14.17;;
13343;SDS011;6741;48.964;9.406;2024-03-08T11:53:02;18.67;;;14.88;;
13343;SDS011;6741;48.964;9.406;2024-03-08T11:55:29;16.23;;;12.95;;
13343;SDS011;6741;48.964;9.406;2024-03-08T11:58:01;15.90;;;12.77;;
13343;SDS011;6741;48.964;9.406;2024-03-08T12:00:29;18.83;;;14.43;;
13343;SDS011;6741;48.964;9.406;2024-03-08T12:03:06;19.08;;;14.27;;
13343;SDS011;6741;48.964;9.406;2024-03-08T12:05:35;16.80;;;13.38;;
13343;SDS011;6741;48.964;9.406;2024-03-08T12:08:03;16.13;;;13.23;;
13343;SDS011;6741;48.964;9.406;2024-03-08T12:10:32;16.30;;;12.93;;
13343;SDS011;6741;48.964;9.406;2024-03-08T12:13:01;16.58;;;13.75;;
13343;SDS011;6741;48.964;9.406;2024-03-08T12:15:29;16.33;;;13.60;;
13343;SDS011;6741;48.964;9.406;2024-03-08T12:17:58;17.73;;;13.77;;
13343;SDS011;6741;48.964;9.406;2024-03-08T12:20:26;17.83;;;13.52;;
13343;SDS011;6741;48.964;9.406;2024-03-08T12:22:55;18.52;;;14.50;;
13343;SDS011;6741;48.964;9.406;2024-03-08T12:25:22;17.58;;;13.95;;
13343;SDS011;6741;48.964;9.406;2024-03-08T12:27:52;17.42;;;13.98;;
13343;SDS011;6741;48.964;9.406;2024-03-08T12:30:23;18.58;;;13.90;;
13343;SDS011;6741;48.964;9.406;2024-03-08T12:32:53;17.42;;;14.00;;
13343;SDS011;6741;48.964;9.406;2024-03-08T12:35:23;16.15;;;13.57;;
13343;SDS011;6741;48.964;9.406;2024-03-08T12:37:52;16.33;;;13.93;;
13343;SDS011;6741;48.964;9.406;2024-03-08T12:40:19;16.27;;;13.65;;
13343;SDS011;6741;48.964;9.406;2024-03-08T12:42:53;18.08;;;14.82;;
13343;SDS011;6741;48.964;9.406;2024-03-08T12:45:20;16.40;;;13.95;;
13343;SDS011;6741;48.964;9.406;2024-03-08T12:47:50;17.23;;;13.93;;
13343;SDS011;6741;48.964;9.406;2024-03-08T12:50:18;18.65;;;14.60;;
13343;SDS011;6741;48.964;9.406;2024-03-08T12:52:45;17.02;;;13.95;;
13343;SDS011;6741;48.964;9.406;2024-03-08T12:55:12;18.27;;;15.55;;
13343;SDS011;6741;48.964;9.406;2024-03-08T12:57:39;15.18;;;13.52;;
13343;SDS011;6741;48.964;9.406;2024-03-08T13:00:06;14.50;;;13.00;;
13343;SDS011;6741;48.964;9.406;2024-03-08T13:02:39;15.23;;;13.13;;
13343;SDS011;6741;48.964;9.406;2024-03-08T13:05:07;16.48;;;13.50;;
13343;SDS011;6741;48.964;9.406;2024-03-08T13:07:35;15.75;;;13.55;;
13343;SDS011;6741;48.964;9.406;2024-03-08T13:10:03;15.07;;;13.30;;
13343;SDS011;6741;48.964;9.406;2024-03-08T13:12:32;17.35;;;13.57;;
13343;SDS011;6741;48.964;9.406;2024-03-08T13:15:00;15.80;;;13.77;;
13343;SDS011;6741;48.964;9.406;2024-03-08T13:17:26;16.13;;;13.88;;
13343;SDS011;6741;48.964;9.406;2024-03-08T13:19:55;16.33;;;13.10;;
13343;SDS011;6741;48.964;9.406;2024-03-08T13:22:24;16.23;;;13.45;;
13343;SDS011;6741;48.964;9.406;2024-03-08T13:24:51;18.05;;;14.15;;
13343;SDS011;6741;48.964;9.406;2024-03-08T13:27:18;15.23;;;12.95;;
13343;SDS011;6741;48.964;9.406;2024-03-08T13:29:48;14.63;;;12.55;;
13343;SDS011;6741;48.964;9.406;2024-03-08T13:32:15;19.40;;;14.50;;
13343;SDS011;6741;48.964;9.406;2024-03-08T13:34:45;16.70;;;14.02;;
13343;SDS011;6741;48.964;9.406;2024-03-08T13:37:15;17.88;;;14.40;;
13343;SDS011;6741;48.964;9.406;2024-03-08T13:39:42;17.02;;;14.50;;
13343;SDS011;6741;48.964;9.406;2024-03-08T13:42:10;14.93;;;13.30;;
13343;SDS011;6741;48.964;9.406;2024-03-08T13:44:38;15.88;;;13.77;;
13343;SDS011;6741;48.964;9.406;2024-03-08T13:47:09;15.90;;;14.27;;
13343;SDS011;6741;48.964;9.406;2024-03-08T13:49:37;15.82;;;13.25;;
13343;SDS011;6741;48.964;9.406;2024-03-08T13:52:04;15.32;;;13.73;;
13343;SDS011;6741;48.964;9.406;2024-03-08T13:54:34;15.40;;;13.27;;
13343;SDS011;6741;48.964;9.406;2024-03-08T13:57:01;17.95;;;14.07;;
13343;SDS011;6741;48.964;9.406;2024-03-08T13:59:29;16.25;;;13.30;;
13343;SDS011;6741;48.964;9.406;2024-03-08T14:01:58;15.57;;;13.55;;
13343;SDS011;6741;48.964;9.406;2024-03-08T14:04:26;14.45;;;12.85;;
13343;SDS011;6741;48.964;9.406;2024-03-08T14:06:53;15.65;;;13.35;;
13343;SDS011;6741;48.964;9.406;2024-03-08T14:09:22;15.85;;;12.93;;
13343;SDS011;6741;48.964;9.406;2024-03-08T14:11:51;15.35;;;13.75;;
13343;SDS011;6741;48.964;9.406;2024-03-08T14:14:20;14.93;;;13.32;;
13343;SDS011;6741;48.964;9.406;2024-03-08T14:16:48;14.45;;;12.90;;
13343;SDS011;6741;48.964;9.406;2024-03-08T14:19:17;14.77;;;12.93;;
13343;SDS011;6741;48.964;9.406;2024-03-08T14:21:45;14.35;;;12.75;;
13343;SDS011;6741;48.964;9.406;2024-03-08T14:24:13;15.82;;;14.13;;
13343;SDS011;6741;48.964;9.406;2024-03-08T14:26:41;15.57;;;13.77;;
13343;SDS011;6741;48.964;9.406;2024-03-08T14:29:09;17.17;;;14.35;;
13343;SDS011;6741;48.964;9.406;2024-03-08T14:31:37;16.08;;;13.85;;
13343;SDS011;6741;48.964;9.406;2024-03-08T14:34:05;17.50;;;13.98;;
13343;SDS011;6741;48.964;9.406;2024-03-08T14:36:32;17.98;;;14.00;;
13343;SDS011;6741;48.964;9.406;2024-03-08T14:39:00;15.82;;;13.98;;